createdAt,value
2019-04-19T00:00:08.537Z,62.02
2019-04-19T00:01:08.866Z,61.74
2019-04-19T00:02:08.086Z,62.02
2019-04-19T00:03:04.473Z,61.74
2019-04-19T00:04:11.094Z,61.93
2019-04-19T00:05:05.254Z,61.93
2019-04-19T00:06:13.749Z,62.02
2019-04-19T00:07:11.102Z,61.74
2019-04-19T00:08:23.143Z,62.12
2019-04-19T00:09:21.507Z,62.12
2019-04-19T00:10:19.920Z,62.12
2019-04-19T00:11:15.329Z,61.93
2019-04-19T00:12:20.825Z,61.74
2019-04-19T00:13:06.140Z,61.74
2019-04-19T00:14:04.400Z,61.55
2019-04-19T00:15:05.544Z,61.65
2019-04-19T00:16:04.670Z,61.74
2019-04-19T00:17:06.263Z,61.55
2019-04-19T00:18:08.006Z,61.45
2019-04-19T00:19:28.947Z,61.65
2019-04-19T00:20:25.542Z,61.55
2019-04-19T00:21:18.316Z,61.74
2019-04-19T00:22:24.928Z,61.45
2019-04-19T00:23:15.467Z,61.07
2019-04-19T00:24:04.295Z,61.45
2019-04-19T00:25:04.840Z,61.55
2019-04-19T00:26:04.332Z,61.93
2019-04-19T00:27:05.791Z,61.93
2019-04-19T00:28:05.542Z,61.74
2019-04-19T00:29:07.665Z,62.31
2019-04-19T00:30:18.037Z,62.12
2019-04-19T00:31:22.717Z,62.12
2019-04-19T00:32:23.159Z,61.93
2019-04-19T00:33:14.397Z,62.40
2019-04-19T00:34:04.458Z,62.50
2019-04-19T00:35:05.387Z,62.21
2019-04-19T00:36:05.164Z,62.31
2019-04-19T00:37:05.642Z,62.40
2019-04-19T00:38:10.337Z,61.74
2019-04-19T00:39:24.374Z,62.59
2019-04-19T00:40:21.227Z,62.50
2019-04-19T00:41:24.128Z,62.40
2019-04-19T00:42:20.834Z,62.31
2019-04-19T00:43:18.761Z,62.78
2019-04-19T00:44:22.250Z,63.04
2019-04-19T00:45:23.738Z,62.66
2019-04-19T00:46:20.855Z,63.32
2019-04-19T00:47:25.968Z,62.85
2019-04-19T00:48:24.611Z,62.66
2019-04-19T00:49:15.974Z,63.04
2019-04-19T00:50:16.107Z,62.75
2019-04-19T00:51:15.226Z,62.66
2019-04-19T00:52:17.443Z,62.75
2019-04-19T00:53:20.889Z,62.66
2019-04-19T00:54:12.794Z,62.66
2019-04-19T00:55:12.899Z,62.75
2019-04-19T00:56:13.289Z,62.75
2019-04-19T00:57:14.677Z,62.85
2019-04-19T00:58:12.514Z,63.13
2019-04-19T00:59:08.474Z,62.75
2019-04-19T01:00:04.735Z,62.85
2019-04-19T01:01:11.541Z,63.04
2019-04-19T01:02:10.178Z,63.13
2019-04-19T01:03:04.771Z,62.94
2019-04-19T01:04:11.848Z,63.32
2019-04-19T01:05:10.540Z,63.51
2019-04-19T01:06:08.913Z,63.51
2019-04-19T01:07:06.813Z,63.42
2019-04-19T01:08:07.317Z,63.79
2019-04-19T01:09:21.474Z,63.32
2019-04-19T01:10:18.988Z,63.51
2019-04-19T01:11:18.012Z,63.13
2019-04-19T01:12:17.613Z,63.51
2019-04-19T01:13:16.070Z,63.42
2019-04-19T01:14:17.163Z,63.60
2019-04-19T01:15:16.492Z,63.70
2019-04-19T01:16:17.085Z,63.70
2019-04-19T01:17:17.549Z,63.89
2019-04-19T01:18:21.316Z,63.89
2019-04-19T01:19:09.073Z,63.32
2019-04-19T01:20:07.466Z,63.60
2019-04-19T01:21:05.130Z,63.51
2019-04-19T01:22:11.826Z,63.32
2019-04-19T01:23:10.175Z,63.51
2019-04-19T01:24:06.527Z,63.60
2019-04-19T01:25:13.982Z,63.79
2019-04-19T01:26:08.674Z,63.23
2019-04-19T01:27:05.053Z,62.85
2019-04-19T01:28:11.377Z,63.32
2019-04-19T01:29:09.480Z,63.23
2019-04-19T01:30:06.172Z,63.70
2019-04-19T01:31:11.397Z,63.89
2019-04-19T01:32:09.713Z,63.79
2019-04-19T01:33:05.795Z,63.98
2019-04-19T01:34:12.034Z,63.79
2019-04-19T01:35:10.166Z,63.89
2019-04-19T01:36:06.372Z,63.89
2019-04-19T01:37:11.247Z,64.17
2019-04-19T01:38:08.301Z,63.89
2019-04-19T01:39:23.136Z,63.79
2019-04-19T01:40:21.506Z,64.08
2019-04-19T01:41:20.551Z,64.08
2019-04-19T01:42:24.726Z,63.98
2019-04-19T01:43:25.929Z,64.08
2019-04-19T01:44:29.071Z,64.17
2019-04-19T01:45:24.035Z,64.08
2019-04-19T01:46:17.408Z,64.17
2019-04-19T01:47:27.861Z,63.89
2019-04-19T01:48:27.043Z,64.84
2019-04-19T01:49:16.160Z,64.75
2019-04-19T01:50:15.239Z,64.56
2019-04-19T01:51:21.368Z,64.65
2019-04-19T01:52:31.531Z,64.75
2019-04-19T01:53:26.784Z,65.12
2019-04-19T01:54:23.561Z,65.41
2019-04-19T01:55:14.961Z,65.12
2019-04-19T01:56:10.352Z,65.50
2019-04-19T01:57:08.617Z,65.19
2019-04-19T01:58:10.749Z,65.69
2019-04-19T01:59:06.782Z,65.37
2019-04-19T02:00:07.541Z,65.66
2019-04-19T02:01:12.391Z,65.75
2019-04-19T02:02:09.468Z,65.79
2019-04-19T02:03:07.853Z,65.19
2019-04-19T02:04:12.255Z,64.90
2019-04-19T02:05:11.631Z,64.90
2019-04-19T02:06:09.473Z,64.90
2019-04-19T02:07:12.552Z,64.90
2019-04-19T02:08:09.662Z,65.12
2019-04-19T02:09:05.540Z,65.22
2019-04-19T02:10:15.339Z,65.09
2019-04-19T02:11:19.013Z,65.37
2019-04-19T02:12:23.669Z,65.47
2019-04-19T02:13:16.817Z,65.00
2019-04-19T02:14:12.078Z,65.19
2019-04-19T02:15:11.364Z,65.28
2019-04-19T02:16:10.179Z,65.66
2019-04-19T02:17:09.755Z,65.56
2019-04-19T02:18:05.650Z,66.14
2019-04-19T02:19:11.701Z,65.95
2019-04-19T02:20:08.623Z,66.14
2019-04-19T02:21:06.736Z,66.14
2019-04-19T02:22:10.691Z,66.04
2019-04-19T02:23:09.767Z,66.42
2019-04-19T02:24:07.170Z,66.42
2019-04-19T02:25:12.669Z,65.95
2019-04-19T02:26:10.633Z,66.23
2019-04-19T02:27:09.659Z,66.23
2019-04-19T02:28:09.007Z,66.04
2019-04-19T02:29:11.198Z,66.14
2019-04-19T02:30:16.838Z,65.95
2019-04-19T02:31:29.297Z,66.23
2019-04-19T02:32:22.240Z,66.23
2019-04-19T02:33:35.127Z,66.04
2019-04-19T02:34:33.812Z,66.42
2019-04-19T02:35:33.027Z,66.14
2019-04-19T02:36:36.039Z,66.42
2019-04-19T02:37:46.784Z,66.52
2019-04-19T02:38:39.582Z,66.42
2019-04-19T02:39:38.469Z,66.42
2019-04-19T02:41:36.055Z,66.52
2019-04-19T02:42:47.365Z,66.89
2019-04-19T02:43:47.345Z,66.52
2019-04-19T02:44:38.468Z,66.52
2019-04-19T02:45:30.035Z,66.52
2019-04-19T02:48:40.131Z,66.33
2019-04-19T02:50:56.891Z,66.61
2019-04-19T02:51:33.142Z,66.42
2019-04-19T02:52:40.728Z,66.42
2019-04-19T02:53:29.602Z,66.04
2019-04-19T02:54:38.204Z,65.95
2019-04-19T02:55:29.565Z,66.23
2019-04-19T02:56:46.851Z,66.33
2019-04-19T02:58:34.026Z,66.14
2019-04-19T02:59:39.221Z,66.52
2019-04-19T03:00:39.678Z,66.52
2019-04-19T03:01:38.680Z,66.89
2019-04-19T03:02:42.256Z,66.99
2019-04-19T03:03:39.472Z,67.08
2019-04-19T03:04:45.941Z,67.37
2019-04-19T03:06:21.579Z,67.08
2019-04-19T03:07:09.172Z,67.08
2019-04-19T03:08:06.349Z,66.71
2019-04-19T03:09:07.242Z,66.80
2019-04-19T03:10:12.936Z,66.71
2019-04-19T03:11:19.811Z,66.71
2019-04-19T03:12:29.083Z,66.71
2019-04-19T03:13:22.732Z,66.99
2019-04-19T03:14:16.424Z,67.27
2019-04-19T03:15:20.251Z,67.75
2019-04-19T03:16:25.283Z,67.65
2019-04-19T03:17:23.266Z,67.14
2019-04-19T03:18:45.408Z,67.46
2019-04-19T03:19:18.315Z,67.71
2019-04-19T03:20:23.199Z,68.19
2019-04-19T03:21:29.642Z,68.00
2019-04-19T03:22:23.492Z,68.38
2019-04-19T03:23:17.949Z,68.29
2019-04-19T03:24:19.145Z,67.90
2019-04-19T03:25:18.210Z,68.48
2019-04-19T03:26:26.772Z,68.10
2019-04-19T03:27:15.328Z,68.19
2019-04-19T03:28:18.503Z,67.90
2019-04-19T03:29:14.850Z,68.10
2019-04-19T03:30:27.520Z,68.19
2019-04-19T03:31:37.959Z,68.19
2019-04-19T03:32:50.083Z,68.00
2019-04-19T03:33:39.768Z,67.81
2019-04-19T03:34:48.858Z,68.48
2019-04-19T03:35:19.614Z,68.00
2019-04-19T03:36:24.893Z,68.00
2019-04-19T03:37:27.739Z,68.57
2019-04-19T03:38:26.426Z,68.57
2019-04-19T03:39:44.278Z,68.29
2019-04-19T03:40:40.055Z,68.00
2019-04-19T03:41:40.558Z,68.10
2019-04-19T03:42:27.226Z,68.57
2019-04-19T03:43:31.418Z,68.48
2019-04-19T03:44:23.469Z,68.19
2019-04-19T03:45:24.364Z,68.19
2019-04-19T03:46:18.799Z,67.81
2019-04-19T03:47:29.397Z,67.43
2019-04-19T03:48:27.255Z,67.43
2019-04-19T03:49:34.012Z,67.71
2019-04-19T03:50:26.461Z,67.62
2019-04-19T03:51:25.188Z,67.56
2019-04-19T03:52:25.913Z,67.33
2019-04-19T03:53:31.029Z,66.99
2019-04-19T03:54:23.628Z,67.14
2019-04-19T03:55:25.987Z,67.24
2019-04-19T03:56:22.179Z,67.43
2019-04-19T03:57:18.393Z,67.43
2019-04-19T03:58:12.354Z,67.71
2019-04-19T03:59:07.300Z,67.81
2019-04-19T04:00:07.063Z,68.10
2019-04-19T04:01:06.833Z,68.19
2019-04-19T04:02:07.813Z,68.19
2019-04-19T04:03:13.834Z,68.19
2019-04-19T04:04:14.670Z,68.00
2019-04-19T04:05:09.722Z,68.29
2019-04-19T04:06:06.832Z,67.90
2019-04-19T04:07:12.330Z,68.29
2019-04-19T04:08:10.212Z,68.48
2019-04-19T04:09:09.419Z,68.57
2019-04-19T04:10:08.079Z,68.38
2019-04-19T04:11:12.597Z,68.48
2019-04-19T04:12:20.996Z,68.76
2019-04-19T04:13:22.572Z,68.00
2019-04-19T04:14:19.200Z,68.66
2019-04-19T04:15:17.766Z,68.57
2019-04-19T04:16:19.539Z,68.10
2019-04-19T04:17:07.951Z,68.38
2019-04-19T04:18:06.961Z,67.90
2019-04-19T04:19:08.272Z,67.90
2019-04-19T04:20:07.394Z,67.81
2019-04-19T04:21:07.563Z,68.29
2019-04-19T04:22:16.779Z,68.00
2019-04-19T04:23:10.503Z,68.29
2019-04-19T04:24:17.461Z,68.76
2019-04-19T04:25:15.225Z,68.48
2019-04-19T04:26:14.015Z,68.48
2019-04-19T04:27:14.611Z,68.85
2019-04-19T04:28:23.507Z,69.23
2019-04-19T04:29:16.679Z,69.71
2019-04-19T04:30:17.609Z,69.52
2019-04-19T04:31:18.638Z,69.23
2019-04-19T04:32:17.294Z,69.71
2019-04-19T04:33:21.597Z,69.52
2019-04-19T04:34:25.576Z,69.23
2019-04-19T04:35:19.964Z,69.04
2019-04-19T04:36:25.209Z,69.13
2019-04-19T04:37:24.880Z,68.95
2019-04-19T04:38:16.863Z,68.66
2019-04-19T04:39:07.396Z,68.95
2019-04-19T04:40:08.347Z,68.85
2019-04-19T04:41:15.545Z,68.76
2019-04-19T04:42:19.504Z,68.95
2019-04-19T04:43:20.349Z,68.95
2019-04-19T04:44:21.950Z,69.42
2019-04-19T04:45:30.083Z,69.04
2019-04-19T04:46:32.512Z,69.42
2019-04-19T04:47:24.307Z,69.42
2019-04-19T04:48:29.388Z,69.33
2019-04-19T04:49:38.328Z,69.42
2019-04-19T04:50:34.097Z,69.52
2019-04-19T04:51:26.213Z,69.33
2019-04-19T04:52:17.886Z,69.33
2019-04-19T04:53:07.340Z,68.76
2019-04-19T04:54:08.164Z,68.48
2019-04-19T04:55:07.344Z,68.76
2019-04-19T04:56:10.126Z,68.66
2019-04-19T04:57:13.915Z,69.04
2019-04-19T04:58:16.292Z,68.95
2019-04-19T04:59:13.124Z,68.85
2019-04-19T05:00:07.924Z,68.76
2019-04-19T05:01:13.515Z,68.76
2019-04-19T05:02:21.723Z,68.76
2019-04-19T05:03:29.283Z,68.38
2019-04-19T05:04:20.067Z,68.48
2019-04-19T05:05:26.105Z,68.76
2019-04-19T05:06:28.148Z,69.04
2019-04-19T05:07:28.387Z,68.76
2019-04-19T05:08:24.592Z,68.48
2019-04-19T05:09:28.023Z,68.57
2019-04-19T05:10:25.870Z,68.48
2019-04-19T05:11:28.195Z,68.48
2019-04-19T05:12:36.519Z,68.66
2019-04-19T05:13:22.082Z,68.76
2019-04-19T05:14:28.304Z,68.57
2019-04-19T05:15:29.947Z,68.76
2019-04-19T05:16:35.508Z,68.57
2019-04-19T05:17:43.991Z,68.19
2019-04-19T05:18:29.417Z,67.71
2019-04-19T05:19:26.968Z,67.81
2019-04-19T05:20:22.732Z,67.14
2019-04-19T05:21:29.522Z,67.71
2019-04-19T05:22:22.118Z,67.62
2019-04-19T05:23:22.195Z,67.05
2019-04-19T05:24:25.527Z,67.24
2019-04-19T05:25:31.382Z,66.58
2019-04-19T05:27:30.232Z,67.52
2019-04-19T05:28:27.570Z,67.43
2019-04-19T05:29:19.804Z,67.52
2019-04-19T05:30:09.019Z,67.14
2019-04-19T05:31:12.283Z,67.05
2019-04-19T05:32:17.643Z,67.33
2019-04-19T05:33:18.061Z,68.19
2019-04-19T05:34:25.910Z,68.29
2019-04-19T05:35:19.360Z,67.81
2019-04-19T05:36:27.539Z,68.48
2019-04-19T05:37:17.361Z,68.19
2019-04-19T05:38:35.315Z,68.48
2019-04-19T05:39:35.905Z,68.66
2019-04-19T05:40:22.752Z,68.10
2019-04-19T05:41:19.144Z,68.10
2019-04-19T05:42:27.682Z,67.81
2019-04-19T05:43:48.690Z,67.71
2019-04-19T05:45:36.673Z,67.43
2019-04-19T05:46:31.832Z,67.24
2019-04-19T05:47:23.903Z,67.24
2019-04-19T05:48:21.992Z,67.33
2019-04-19T05:49:25.340Z,67.05
2019-04-19T05:50:34.102Z,67.14
2019-04-19T05:51:33.931Z,67.43
2019-04-19T05:52:30.091Z,67.71
2019-04-19T05:53:16.713Z,67.52
2019-04-19T05:54:11.548Z,67.52
2019-04-19T05:55:09.897Z,67.52
2019-04-19T05:56:09.046Z,67.52
2019-04-19T05:57:28.125Z,66.96
2019-04-19T05:58:16.558Z,66.77
2019-04-19T05:59:14.991Z,66.96
2019-04-19T06:00:20.689Z,66.29
2019-04-19T06:01:27.756Z,66.29
2019-04-19T06:02:17.946Z,66.01
2019-04-19T06:03:17.667Z,66.10
2019-04-19T06:04:29.012Z,66.20
2019-04-19T06:05:28.657Z,66.20
2019-04-19T06:06:35.959Z,66.29
2019-04-19T06:07:22.816Z,66.23
2019-04-19T06:08:18.343Z,66.04
2019-04-19T06:09:09.144Z,66.14
2019-04-19T06:10:10.987Z,66.14
2019-04-19T06:11:09.528Z,66.33
2019-04-19T06:12:12.428Z,66.14
2019-04-19T06:13:11.928Z,65.75
2019-04-19T06:14:33.792Z,65.28
2019-04-19T06:15:33.956Z,65.37
2019-04-19T06:16:26.129Z,65.85
2019-04-19T06:17:26.902Z,66.14
2019-04-19T06:18:24.570Z,65.66
2019-04-19T06:19:28.440Z,64.90
2019-04-19T06:20:26.140Z,66.52
2019-04-19T06:21:31.198Z,66.80
2019-04-19T06:22:28.699Z,67.75
2019-04-19T06:23:29.619Z,66.71
2019-04-19T06:24:28.997Z,66.80
2019-04-19T06:25:35.185Z,65.98
2019-04-19T06:27:38.149Z,62.75
2019-04-19T06:28:30.299Z,62.46
2019-04-19T06:29:31.416Z,61.61
2019-04-19T06:30:27.320Z,62.56
2019-04-19T06:31:46.097Z,61.90
2019-04-19T06:32:36.222Z,60.47
2019-04-19T06:33:28.178Z,60.76
2019-04-19T06:34:24.708Z,62.56
2019-04-19T06:35:22.554Z,63.42
2019-04-19T06:36:11.194Z,63.04
2019-04-19T06:37:15.304Z,64.08
2019-04-19T06:38:09.491Z,65.22
2019-04-19T06:39:09.768Z,64.56
2019-04-19T06:40:16.399Z,64.08
2019-04-19T06:41:13.564Z,64.08
2019-04-19T06:42:11.738Z,65.60
2019-04-19T06:43:14.210Z,65.88
2019-04-19T06:44:16.899Z,64.84
2019-04-19T06:45:29.401Z,63.51
2019-04-19T06:46:23.479Z,63.13
2019-04-19T06:47:18.987Z,62.27
2019-04-19T06:48:14.402Z,62.46
2019-04-19T06:49:16.074Z,63.79
2019-04-19T06:50:08.875Z,63.23
2019-04-19T06:51:17.392Z,61.99
2019-04-19T06:52:15.854Z,61.71
2019-04-19T06:53:08.569Z,63.89
2019-04-19T06:54:11.913Z,62.27
2019-04-19T06:55:17.451Z,61.04
2019-04-19T06:56:17.118Z,60.38
2019-04-19T06:57:16.546Z,59.24
2019-04-19T06:58:15.947Z,59.24
2019-04-19T06:59:17.880Z,58.86
2019-04-19T07:00:21.560Z,59.14
2019-04-19T07:01:21.733Z,60.76
2019-04-19T07:02:09.262Z,60.28
2019-04-19T07:03:10.868Z,61.42
2019-04-19T07:04:08.691Z,61.52
2019-04-19T07:05:23.081Z,62.08
2019-04-19T07:06:25.315Z,61.99
2019-04-19T07:07:27.303Z,61.99
2019-04-19T07:08:48.776Z,63.51
2019-04-19T07:09:32.269Z,63.89
2019-04-19T07:10:39.621Z,64.08
2019-04-19T07:11:33.243Z,63.42
2019-04-19T07:12:31.515Z,63.04
2019-04-19T07:13:21.538Z,62.46
2019-04-19T07:14:14.573Z,63.04
2019-04-19T07:15:36.703Z,63.07
2019-04-19T07:16:31.561Z,62.31
2019-04-19T07:17:28.963Z,62.21
2019-04-19T07:18:24.928Z,62.12
2019-04-19T07:19:33.120Z,62.59
2019-04-19T07:20:24.250Z,64.11
2019-04-19T07:21:29.040Z,65.06
2019-04-19T07:22:22.874Z,63.07
2019-04-19T07:23:28.157Z,62.12
2019-04-19T07:24:33.673Z,61.45
2019-04-19T07:25:36.847Z,62.02
2019-04-19T07:26:26.969Z,63.54
2019-04-19T07:27:24.814Z,63.73
2019-04-19T07:28:16.523Z,63.20
2019-04-19T07:29:09.000Z,60.25
2019-04-19T07:30:10.223Z,60.91
2019-04-19T07:31:11.406Z,60.75
2019-04-19T07:32:10.234Z,61.42
2019-04-19T07:33:15.776Z,58.47
2019-04-19T07:34:22.188Z,56.48
2019-04-19T07:35:31.811Z,57.04
2019-04-19T07:36:31.998Z,56.76
2019-04-19T07:37:26.035Z,57.71
2019-04-19T07:38:28.336Z,58.35
2019-04-19T07:39:25.624Z,56.83
2019-04-19T07:40:30.737Z,58.83
2019-04-19T07:41:26.712Z,59.68
2019-04-19T07:42:32.023Z,59.30
2019-04-19T07:43:25.767Z,60.72
2019-04-19T07:44:23.428Z,61.96
2019-04-19T07:45:13.523Z,60.35
2019-04-19T07:46:29.448Z,59.49
2019-04-19T07:47:17.912Z,60.72
2019-04-19T07:48:13.590Z,60.35
2019-04-19T07:49:11.056Z,58.32
2019-04-19T07:50:16.946Z,58.06
2019-04-19T07:51:14.988Z,57.11
2019-04-19T07:52:19.042Z,57.87
2019-04-19T07:53:10.180Z,57.87
2019-04-19T07:54:15.100Z,55.88
2019-04-19T07:55:13.034Z,57.87
2019-04-19T07:56:21.931Z,58.85
2019-04-19T07:57:42.189Z,60.18
2019-04-19T07:59:34.451Z,56.67
2019-04-19T08:01:00.723Z,55.43
2019-04-19T08:02:48.686Z,56.12
2019-04-19T08:04:48.543Z,54.69
2019-04-19T08:05:35.092Z,56.19
2019-04-19T08:07:01.728Z,58.18
2019-04-19T08:08:01.225Z,56.57
2019-04-19T08:09:34.598Z,59.14
2019-04-19T08:10:47.013Z,59.45
2019-04-19T08:11:58.636Z,59.29
2019-04-19T08:13:44.350Z,56.34
2019-04-19T08:15:38.859Z,56.12
2019-04-19T08:17:10.481Z,57.17
2019-04-19T08:28:20.417Z,57.26
2019-04-19T08:29:22.131Z,57.26
2019-04-19T08:30:16.401Z,57.93
2019-04-19T08:31:11.957Z,59.07
2019-04-19T08:32:10.812Z,58.12
2019-04-19T08:33:10.578Z,56.60
2019-04-19T08:34:14.480Z,57.04
2019-04-19T08:35:14.935Z,57.26
2019-04-19T08:36:11.447Z,57.26
2019-04-19T08:37:18.727Z,57.24
2019-04-19T08:38:17.509Z,58.57
2019-04-19T08:39:30.223Z,60.66
2019-04-19T08:40:29.270Z,62.02
2019-04-19T08:41:18.565Z,59.45
2019-04-19T08:42:30.979Z,59.74
2019-04-19T08:43:25.095Z,59.45
2019-04-19T08:44:21.835Z,59.07
2019-04-19T08:45:14.269Z,58.40
2019-04-19T08:46:11.111Z,59.27
2019-04-19T08:47:21.806Z,56.70
2019-04-19T08:48:17.915Z,58.22
2019-04-19T08:49:13.772Z,57.07
2019-04-19T08:50:12.558Z,57.55
2019-04-19T08:51:10.118Z,56.98
2019-04-19T08:52:12.929Z,59.17
2019-04-19T08:53:28.168Z,59.07
2019-04-19T08:54:33.606Z,58.79
2019-04-19T08:55:30.476Z,59.17
2019-04-19T08:56:23.699Z,58.53
2019-04-19T08:57:15.629Z,58.72
2019-04-19T08:58:23.874Z,57.87
2019-04-19T08:59:36.248Z,57.96
2019-04-19T09:00:40.815Z,56.53
2019-04-19T09:01:34.814Z,58.06
2019-04-19T09:02:29.052Z,56.94
2019-04-19T09:03:35.663Z,56.72
2019-04-19T09:04:31.720Z,56.09
2019-04-19T09:05:28.018Z,53.32
2019-04-19T09:07:08.353Z,55.90
2019-04-19T09:08:29.552Z,55.90
2019-04-19T09:09:30.610Z,56.09
2019-04-19T09:11:26.973Z,54.37
2019-04-19T09:12:25.430Z,54.66
2019-04-19T09:13:35.308Z,54.94
2019-04-19T09:14:32.840Z,56.27
2019-04-19T09:15:24.236Z,54.49
2019-04-19T09:16:25.611Z,55.26
2019-04-19T09:17:47.502Z,53.54
2019-04-19T09:18:44.222Z,55.35
2019-04-19T09:19:53.700Z,51.42
2019-04-19T09:20:31.726Z,53.04
2019-04-19T09:21:27.396Z,54.18
2019-04-19T09:22:25.508Z,53.32
2019-04-19T09:23:24.809Z,54.66
2019-04-19T09:24:17.085Z,52.94
2019-04-19T09:25:25.488Z,53.49
2019-04-19T09:26:31.404Z,55.96
2019-04-19T09:28:44.873Z,56.63
2019-04-19T09:29:33.634Z,57.39
2019-04-19T09:30:27.665Z,57.13
2019-04-19T09:31:26.304Z,58.75
2019-04-19T09:32:16.733Z,56.94
2019-04-19T09:33:20.052Z,56.65
2019-04-19T09:34:14.081Z,56.46
2019-04-19T09:35:12.755Z,57.26
2019-04-19T09:36:14.216Z,56.18
2019-04-19T09:37:21.219Z,57.32
2019-04-19T09:38:21.460Z,57.32
2019-04-19T09:39:26.286Z,57.13
2019-04-19T09:40:16.098Z,56.56
2019-04-19T09:41:19.365Z,56.37
2019-04-19T09:42:21.383Z,57.99
2019-04-19T09:43:24.230Z,56.59
2019-04-19T09:44:21.764Z,55.44
2019-04-19T09:45:10.545Z,55.09
2019-04-19T09:46:10.561Z,54.90
2019-04-19T09:47:10.587Z,53.66
2019-04-19T09:48:31.604Z,52.80
2019-04-19T09:49:24.915Z,54.30
2019-04-19T09:50:27.193Z,54.21
2019-04-19T09:51:30.187Z,54.49
2019-04-19T09:52:35.622Z,55.95
2019-04-19T09:53:35.622Z,56.93
2019-04-19T09:54:32.574Z,53.59
2019-04-19T09:55:33.107Z,53.41
2019-04-19T09:56:27.499Z,52.73
2019-04-19T09:57:31.346Z,51.47
2019-04-19T09:58:25.282Z,50.52
2019-04-19T09:59:20.599Z,51.25
2019-04-19T10:00:16.529Z,51.80
2019-04-19T10:01:10.752Z,52.53
2019-04-19T10:02:19.400Z,53.52
2019-04-19T10:03:21.861Z,52.82
2019-04-19T10:04:10.980Z,53.20
2019-04-19T10:05:10.804Z,55.73
2019-04-19T10:06:11.082Z,53.19
2019-04-19T10:07:11.259Z,52.42
2019-04-19T10:08:11.571Z,51.45
2019-04-19T10:09:16.594Z,51.35
2019-04-19T10:10:13.035Z,50.85
2019-04-19T10:11:10.888Z,51.23
2019-04-19T10:12:11.273Z,51.58
2019-04-19T10:13:11.957Z,51.99
2019-04-19T10:14:13.265Z,51.89
2019-04-19T10:15:11.816Z,52.56
2019-04-19T10:16:10.950Z,53.80
2019-04-19T10:17:12.284Z,51.89
2019-04-19T10:18:10.979Z,51.80
2019-04-19T10:19:11.536Z,52.09
2019-04-19T10:20:11.004Z,52.18
2019-04-19T10:21:19.099Z,52.09
2019-04-19T10:22:12.283Z,51.87
2019-04-19T10:23:11.294Z,52.70
2019-04-19T10:24:15.031Z,53.55
2019-04-19T10:25:11.408Z,53.30
2019-04-19T10:26:12.696Z,53.87
2019-04-19T10:27:11.097Z,52.92
2019-04-19T10:28:11.927Z,52.28
2019-04-19T10:29:19.770Z,53.70
2019-04-19T10:30:12.068Z,51.23
2019-04-19T10:31:11.462Z,50.78
2019-04-19T10:32:11.159Z,51.73
2019-04-19T10:33:11.175Z,50.78
2019-04-19T10:34:12.283Z,51.16
2019-04-19T10:35:11.531Z,52.40
2019-04-19T10:36:11.212Z,53.00
2019-04-19T10:37:11.224Z,51.31
2019-04-19T10:38:11.695Z,49.40
2019-04-19T10:39:11.898Z,46.47
2019-04-19T10:40:11.268Z,47.30
2019-04-19T10:41:11.610Z,47.89
2019-04-19T10:42:12.290Z,47.71
2019-04-19T10:43:11.516Z,47.44
2019-04-19T10:44:16.572Z,45.78
2019-04-19T10:45:12.210Z,46.42
2019-04-19T10:46:11.353Z,47.49
2019-04-19T10:47:12.459Z,47.92
2019-04-19T10:48:11.779Z,45.63
2019-04-19T10:49:17.188Z,47.20
2019-04-19T10:50:20.501Z,43.82
2019-04-19T10:51:12.269Z,43.33
2019-04-19T10:52:11.437Z,44.38
2019-04-19T10:53:12.378Z,44.51
2019-04-19T10:54:12.640Z,45.46
2019-04-19T10:55:11.481Z,43.72
2019-04-19T10:56:12.143Z,44.96
2019-04-19T10:57:12.490Z,45.70
2019-04-19T10:58:11.699Z,46.66
2019-04-19T10:59:12.054Z,46.68
2019-04-19T11:00:11.549Z,45.92
2019-04-19T11:01:11.569Z,46.80
2019-04-19T11:02:11.585Z,45.56
2019-04-19T11:03:12.716Z,43.24
2019-04-19T11:04:12.939Z,42.08
2019-04-19T11:05:11.627Z,42.17
2019-04-19T11:06:12.563Z,44.82
2019-04-19T11:07:11.771Z,46.49
2019-04-19T11:08:12.722Z,47.92
2019-04-19T11:09:12.305Z,48.23
2019-04-19T11:10:11.995Z,47.85
2019-04-19T11:11:11.801Z,48.23
2019-04-19T11:12:11.729Z,48.52
2019-04-19T11:13:12.811Z,48.92
2019-04-19T11:14:12.235Z,47.68
2019-04-19T11:15:12.885Z,48.16
2019-04-19T11:16:12.206Z,48.16
2019-04-19T11:17:11.804Z,46.63
2019-04-19T11:18:11.881Z,46.34
2019-04-19T11:19:19.315Z,46.18
2019-04-19T11:20:24.018Z,46.37
2019-04-19T11:21:11.863Z,44.92
2019-04-19T11:22:12.005Z,43.96
2019-04-19T11:23:11.891Z,44.60
2019-04-19T11:24:11.905Z,45.37
2019-04-19T11:25:12.240Z,47.97
2019-04-19T11:26:12.669Z,47.20
2019-04-19T11:27:13.207Z,45.49
2019-04-19T11:28:13.100Z,45.83
2019-04-19T11:29:11.981Z,46.11
2019-04-19T11:30:12.974Z,47.25
2019-04-19T11:31:13.245Z,47.16
2019-04-19T11:32:12.296Z,47.06
2019-04-19T11:33:12.827Z,48.11
2019-04-19T11:34:13.127Z,46.68
2019-04-19T11:35:12.065Z,46.58
2019-04-19T11:36:13.042Z,47.16
2019-04-19T11:37:13.643Z,47.25
2019-04-19T11:38:13.265Z,48.11
2019-04-19T11:39:12.744Z,48.02
2019-04-19T11:40:13.166Z,48.23
2019-04-19T11:41:13.340Z,48.32
2019-04-19T11:42:12.924Z,46.99
2019-04-19T11:43:13.455Z,47.28
2019-04-19T11:44:18.215Z,45.83
2019-04-19T11:45:12.205Z,46.87
2019-04-19T11:46:12.223Z,47.82
2019-04-19T11:47:13.277Z,48.61
2019-04-19T11:48:12.990Z,48.54
2019-04-19T11:49:22.872Z,46.15
2019-04-19T11:50:13.684Z,45.58
2019-04-19T11:51:12.306Z,45.58
2019-04-19T11:52:13.815Z,46.15
2019-04-19T11:53:12.320Z,45.94
2019-04-19T11:54:12.549Z,45.56
2019-04-19T11:55:12.691Z,46.04
2019-04-19T11:56:12.365Z,46.99
2019-04-19T11:57:12.449Z,47.66
2019-04-19T11:58:12.578Z,47.94
2019-04-19T11:59:12.410Z,47.06
2019-04-19T12:00:13.636Z,48.68
2019-04-19T12:01:12.449Z,48.90
2019-04-19T12:02:13.361Z,48.90
2019-04-19T12:03:12.463Z,47.87
2019-04-19T12:04:12.479Z,45.97
2019-04-19T12:05:19.517Z,45.20
2019-04-19T12:06:12.507Z,44.73
2019-04-19T12:07:12.610Z,45.28
2019-04-19T12:08:12.721Z,46.04
2019-04-19T12:09:12.703Z,47.18
2019-04-19T12:10:12.564Z,47.75
2019-04-19T12:11:12.775Z,47.18
2019-04-19T12:12:12.907Z,47.66
2019-04-19T12:13:13.055Z,48.16
2019-04-19T12:14:12.621Z,47.97
2019-04-19T12:15:13.802Z,46.34
2019-04-19T12:16:13.019Z,44.34
2019-04-19T12:17:13.279Z,44.08
2019-04-19T12:18:12.686Z,44.17
2019-04-19T12:19:13.732Z,42.82
2019-04-19T12:20:13.188Z,43.13
2019-04-19T12:21:13.485Z,45.10
2019-04-19T12:22:12.951Z,44.60
2019-04-19T12:23:13.827Z,44.32
2019-04-19T12:24:12.910Z,44.70
2019-04-19T12:25:12.782Z,45.65
2019-04-19T12:26:13.754Z,45.56
2019-04-19T12:27:13.767Z,46.23
2019-04-19T12:28:12.830Z,46.73
2019-04-19T12:29:24.351Z,46.63
2019-04-19T12:30:13.613Z,46.63
2019-04-19T12:31:13.678Z,46.44
2019-04-19T12:32:12.887Z,44.53
2019-04-19T12:33:13.280Z,44.25
2019-04-19T12:34:14.506Z,46.25
2019-04-19T12:35:13.109Z,45.97
2019-04-19T12:36:12.947Z,45.22
2019-04-19T12:37:13.365Z,44.92
2019-04-19T12:38:14.330Z,44.15
2019-04-19T12:39:12.989Z,43.56
2019-04-19T12:40:13.008Z,46.13
2019-04-19T12:41:14.220Z,47.58
2019-04-19T12:42:13.534Z,46.54
2019-04-19T12:43:14.030Z,46.94
2019-04-19T12:44:13.333Z,46.27
2019-04-19T12:45:13.550Z,44.56
2019-04-19T12:46:13.094Z,44.25
2019-04-19T12:47:13.150Z,43.49
2019-04-19T12:48:13.980Z,44.80
2019-04-19T12:49:14.393Z,45.35
2019-04-19T12:50:14.761Z,45.35
2019-04-19T12:51:14.156Z,46.01
2019-04-19T12:52:13.182Z,46.80
2019-04-19T12:53:13.197Z,47.11
2019-04-19T12:54:14.123Z,45.78
2019-04-19T12:55:14.343Z,45.32
2019-04-19T12:56:13.958Z,43.03
2019-04-19T12:57:14.051Z,42.63
2019-04-19T12:58:14.049Z,42.46
2019-04-19T12:59:13.848Z,43.33
2019-04-19T13:00:14.135Z,43.55
2019-04-19T13:01:14.238Z,43.46
2019-04-19T13:02:13.743Z,41.26
2019-04-19T13:03:13.892Z,40.99
2019-04-19T13:04:14.661Z,41.38
2019-04-19T13:05:14.225Z,40.66
2019-04-19T13:06:13.529Z,41.41
2019-04-19T13:07:13.404Z,41.60
2019-04-19T13:08:13.456Z,40.63
2019-04-19T13:09:13.449Z,42.63
2019-04-19T13:10:13.450Z,43.20
2019-04-19T13:11:14.573Z,43.08
2019-04-19T13:12:14.574Z,43.84
2019-04-19T13:13:13.999Z,44.99
2019-04-19T13:14:13.513Z,45.97
2019-04-19T13:15:13.759Z,45.58
2019-04-19T13:16:14.486Z,44.92
2019-04-19T13:17:13.553Z,44.34
2019-04-19T13:18:14.207Z,43.20
2019-04-19T13:19:14.219Z,42.44
2019-04-19T13:20:21.040Z,42.53
2019-04-19T13:21:13.897Z,43.20